Latest Weather Observations for Esperance Airport

IDW60801

Issued at 7:05 pm WST Wednesday 30 July 2014 (issued every 30 minutes, with the page automatically refreshed every 10 minutes)

About weather observations | Map of weather stations | Latest weather observations for WA | Other Formats
Station Details ID: 009542 Name: ESPERANCE AERO Lat: -33.68 Lon: 121.83 Height: 142.0 m
Data from the previous 72 hours. | See also: Recent months at Esperance Airport
Date/Time
WST
Temp
°C
App
Temp
°C
Dew
Point
Rel
Hum
%
Delta-T
°C
Wind Press
QNH
hPa
Press
MSL
hPa
Rain
since 9 am
mm
Dir
 
Spd
km/h
Gust
km/h
Spd
kts
Gust
kts
30/07:00pm 14.3 9.4 10.1 76 2.2 NW 26 33 14 18 1016.3 - 0.0
30/06:30pm 14.5 9.3 10.1 75 2.3 WNW 28 35 15 19 1016.2 - 0.0
30/06:00pm 14.8 9.5 10.0 73 2.5 WNW 28 33 15 18 1016.1 1016.2 0.0
30/05:30pm 15.0 9.8 10.2 73 2.5 WNW 28 35 15 19 1016.0 - 0.0
30/05:00pm 15.6 10.5 10.6 72 2.7 WNW 28 35 15 19 1015.7 - 0.0
30/04:30pm 16.5 11.5 10.8 69 3.1 W 28 39 15 21 1015.6 - 0.0
30/04:00pm 16.8 10.7 10.4 66 3.4 W 33 44 18 24 1015.5 - 0.0
30/03:30pm 17.6 10.9 10.9 65 3.6 W 37 48 20 26 1015.4 - 0.0
30/03:00pm 18.1 11.0 11.0 63 3.9 W 39 48 21 26 1015.4 1015.5 0.0
30/02:30pm 18.0 10.8 10.6 62 4.0 W 39 50 21 27 1015.5 - 0.0
30/02:00pm 17.6 12.2 10.9 65 3.6 W 30 39 16 21 1015.6 - 0.0
30/01:30pm 16.9 9.6 10.3 65 3.5 W 39 50 21 27 1015.9 - 0.0
30/01:00pm 17.3 11.1 11.3 68 3.3 W 35 44 19 24 1016.4 - 0.0
30/12:30pm 16.7 9.9 10.5 67 3.3 W 37 48 20 26 1016.7 - 0.0
30/12:00pm 16.4 10.1 10.9 70 3.0 WNW 35 46 19 25 1017.2 1017.2 0.0
30/11:30am 16.0 9.5 10.3 69 3.0 WNW 35 44 19 24 1017.6 - 0.0
30/11:00am 16.1 9.1 11.1 72 2.7 W 39 50 21 27 1017.9 - 0.0
30/10:30am 15.4 8.6 10.6 73 2.6 WNW 37 50 20 27 1018.4 - 0.0
30/10:00am 15.2 8.1 10.8 75 2.3 W 39 54 21 29 1018.9 - 0.0
30/09:54am 15.7 10.0 11.1 74 2.5 WNW 32 50 17 27 1018.9 - 0.0
30/09:30am 14.4 8.6 11.4 82 1.6 WNW 33 41 18 22 1018.9 - 0.0
30/09:00am 13.7 8.0 11.2 85 1.3 WNW 32 41 17 22 1018.8 1018.8 0.0
30/08:30am 13.4 8.2 11.5 88 1.0 WNW 30 39 16 21 1018.8 - 0.0
30/08:00am 12.3 7.3 11.0 92 0.7 NW 28 35 15 19 1018.9 - 0.0
30/07:30am 12.5 7.9 10.9 90 0.8 WNW 26 35 14 19 1018.8 - 0.0
30/07:00am 12.0 7.7 10.7 92 0.7 NW 24 32 13 17 1018.7 - 0.0
30/06:30am 11.8 7.2 10.9 94 0.5 WNW 26 35 14 19 1018.8 - 0.0
30/06:00am 11.9 7.7 11.1 95 0.4 WNW 24 32 13 17 1018.9 1018.9 0.0
30/05:30am 11.9 7.3 11.0 94 0.5 WNW 26 35 14 19 1018.8 - 0.0
30/05:00am 11.7 6.3 10.8 94 0.5 WNW 30 41 16 22 1018.7 - 0.0
30/04:30am 11.5 6.9 10.9 96 0.3 WNW 26 33 14 18 1018.8 - 0.0
30/04:00am 11.4 6.3 10.6 95 0.4 WNW 28 37 15 20 1019.1 - 0.0
30/03:30am 11.5 6.4 10.6 94 0.5 WNW 28 37 15 20 1019.1 - 0.0
30/03:00am 11.6 6.5 10.7 94 0.5 WNW 28 35 15 19 1019.3 1019.3 0.0
30/02:30am 11.5 6.3 10.4 93 0.6 WNW 28 35 15 19 1019.5 - 0.0
30/02:00am 11.8 6.7 10.5 92 0.7 WNW 28 35 15 19 1019.5 - 0.0
30/01:30am 11.1 6.2 9.9 92 0.6 NW 26 35 14 19 1019.7 - 0.0
30/01:00am 11.6 7.1 10.2 91 0.7 NW 24 33 13 18 1019.8 - 0.0
30/12:30am 11.4 7.7 10.0 91 0.7 NW 20 26 11 14 1020.0 - 0.0
30/12:00am 12.4 8.3 10.1 86 1.2 NW 22 30 12 16 1020.1 1020.2 0.0
 
Date/Time
WST
Temp
°C
App
Temp
°C
Dew
Point
Rel
Hum
%
Delta-T
°C
Wind Press
QNH
hPa
Press
MSL
hPa
Rain
since 9 am
mm
Dir
 
Spd
km/h
Gust
km/h
Spd
kts
Gust
kts
29/11:30pm 11.5 7.9 9.8 89 0.9 NW 19 24 10 13 1020.3 - 0.0
29/11:00pm 11.4 7.8 9.7 89 0.9 NW 19 24 10 13 1020.6 - 0.0
29/10:30pm 12.3 8.7 9.7 84 1.3 NW 19 26 10 14 1020.8 - 0.0
29/10:00pm 12.8 8.6 9.8 82 1.5 WNW 22 28 12 15 1020.9 - 0.0
29/09:30pm 12.9 9.1 9.7 81 1.6 WNW 20 24 11 13 1020.9 - 0.0
29/09:00pm 14.0 9.1 10.0 77 2.1 WNW 26 33 14 18 1021.2 1021.3 0.0
29/08:30pm 14.8 11.0 11.0 78 2.0 WNW 22 30 12 16 1021.0 - 0.0
29/08:00pm 15.3 11.9 11.1 76 2.3 WNW 20 28 11 15 1021.0 - 0.0
29/07:30pm 15.1 11.8 11.7 80 1.8 WNW 20 26 11 14 1020.8 - 0.0
29/07:00pm 14.6 12.7 11.9 84 1.5 NW 13 17 7 9 1020.8 - 0.0
29/06:30pm 14.4 13.8 13.4 94 0.6 WNW 9 13 5 7 1020.8 - 0.0
29/06:00pm 14.2 13.9 13.2 94 0.6 WSW 7 9 4 5 1020.5 1020.6 0.0
29/05:30pm 14.7 14.3 13.1 90 0.9 WSW 7 9 4 5 1020.3 - 0.0
29/05:00pm 16.1 14.5 12.8 81 1.8 WSW 13 15 7 8 1020.0 - 0.0
29/04:30pm 17.7 16.1 12.8 73 2.8 W 13 19 7 10 1019.9 - 0.0
29/04:00pm 17.5 15.1 12.6 73 2.7 W 17 20 9 11 1019.8 - 0.0
29/03:30pm 17.9 14.7 11.9 68 3.3 W 20 28 11 15 1019.8 - 0.0
29/03:00pm 17.7 14.1 11.7 68 3.3 WNW 22 32 12 17 1019.8 1019.8 0.0
29/02:30pm 18.0 14.1 12.0 68 3.3 WNW 24 32 13 17 1019.8 - 0.0
29/02:00pm 18.4 13.2 11.5 64 3.8 W 30 39 16 21 1019.8 - 0.0
29/01:30pm 18.9 14.0 12.6 67 3.5 W 30 39 16 21 1020.0 - 0.0
29/01:00pm 17.9 12.4 12.4 70 3.1 W 33 43 18 23 1020.3 - 0.0
29/12:30pm 18.1 12.8 13.0 72 2.9 WSW 33 43 18 23 1020.5 - 0.0
29/12:00pm 17.6 12.4 12.9 74 2.6 W 32 41 17 22 1021.0 1021.1 0.0
29/11:30am 17.8 12.8 13.3 75 2.6 W 32 41 17 22 1021.2 - 0.0
29/11:00am 16.7 10.9 12.8 78 2.2 W 35 46 19 25 1021.4 - 0.0
29/10:30am 16.3 10.9 12.7 79 2.0 W 33 41 18 22 1021.8 - 0.0
29/10:00am 15.8 11.0 12.9 83 1.6 W 30 39 16 21 1021.9 - 0.0
29/09:30am 15.0 9.8 12.9 87 1.2 WNW 32 43 17 23 1021.8 - 0.0
29/09:00am 13.7 8.7 12.3 91 0.8 WNW 30 37 16 20 1021.7 1021.8 0.0
29/08:30am 12.4 7.2 11.6 95 0.4 WNW 30 37 16 20 1021.5 - 0.0
29/08:00am 11.5 6.6 11.3 99 0.1 WNW 28 35 15 19 1021.3 - 0.0
29/07:30am 10.6 5.8 10.4 99 0.1 WNW 26 35 14 19 1021.2 - 0.0
29/07:00am 10.3 5.1 10.1 99 0.1 WNW 28 37 15 20 1020.9 - 0.0
29/06:30am 10.1 5.2 9.9 99 0.1 WNW 26 33 14 18 1020.8 - 0.0
29/06:00am 9.9 5.3 9.8 99 0.1 WNW 24 32 13 17 1020.3 1020.4 0.0
29/05:30am 10.1 5.9 9.9 99 0.1 WNW 22 32 12 17 1020.1 - 0.0
29/05:00am 10.5 5.7 10.3 99 0.1 WNW 26 35 14 19 1019.7 - 0.0
29/04:30am 10.1 5.9 9.9 99 0.1 WNW 22 28 12 15 1019.9 - 0.0
29/04:00am 10.6 5.8 10.4 99 0.1 WNW 26 35 14 19 1019.6 - 0.0
29/03:30am 10.7 6.0 10.5 99 0.1 WNW 26 32 14 17 1019.6 - 0.0
29/03:00am 10.8 5.7 10.6 99 0.1 WNW 28 35 15 19 1019.2 1019.2 0.0
29/02:30am 10.8 5.7 10.6 99 0.1 WNW 28 35 15 19 1019.1 - 0.0
29/02:00am 11.0 5.9 10.7 98 0.2 WNW 28 37 15 20 1019.2 - 0.0
29/01:30am 11.3 6.3 11.0 98 0.2 WNW 28 35 15 19 1019.2 - 0.0
29/01:00am 11.5 6.5 11.0 97 0.3 WNW 28 35 15 19 1019.2 - 0.0
29/12:30am 11.7 6.7 10.9 95 0.4 WNW 28 37 15 20 1019.2 - 0.0
29/12:00am 12.2 6.4 10.9 92 0.7 WNW 32 39 17 21 1019.2 1019.2 0.0
 
Date/Time
WST
Temp
°C
App
Temp
°C
Dew
Point
Rel
Hum
%
Delta-T
°C
Wind Press
QNH
hPa
Press
MSL
hPa
Rain
since 9 am
mm
Dir
 
Spd
km/h
Gust
km/h
Spd
kts
Gust
kts
28/11:30pm 12.1 7.1 10.8 92 0.7 NW 28 41 15 22 1019.4 - 0.0
28/11:00pm 12.4 7.4 11.0 91 0.7 NW 28 39 15 21 1019.5 - 0.0
28/10:30pm 12.7 7.7 11.1 90 0.8 NW 28 39 15 21 1019.7 - 0.0
28/10:00pm 12.8 7.8 11.0 89 1.0 NW 28 37 15 20 1019.9 - 0.0
28/09:30pm 13.0 8.4 10.9 87 1.1 NW 26 33 14 18 1019.9 - 0.0
28/09:00pm 13.3 8.6 10.8 85 1.3 NW 26 32 14 17 1020.0 1020.0 0.0
28/08:30pm 13.2 8.9 10.7 85 1.3 NW 24 33 13 18 1019.7 - 0.0
28/08:00pm 13.5 9.2 10.9 84 1.4 NW 24 32 13 17 1019.8 - 0.0
28/07:30pm 13.7 9.8 10.9 83 1.5 NW 22 30 12 16 1019.6 - 0.0
28/07:00pm 13.8 10.3 11.0 83 1.5 NW 20 28 11 15 1019.6 - 0.0
28/06:30pm 13.7 10.4 10.9 83 1.5 NW 19 22 10 12 1019.4 - 0.0
28/06:00pm 14.2 11.0 11.2 82 1.6 WNW 19 24 10 13 1019.1 1019.1 0.0
28/05:30pm 15.2 12.0 11.4 78 2.1 WNW 19 24 10 13 1018.9 - 0.0
28/05:00pm 15.8 12.1 11.4 75 2.4 WNW 22 30 12 16 1018.7 - 0.0
28/04:30pm 16.7 12.6 11.4 71 2.9 WNW 24 30 13 16 1018.4 - 0.0
28/04:00pm 17.0 11.7 11.3 69 3.1 W 30 37 16 20 1018.1 - 0.0
28/03:30pm 17.4 11.5 11.2 67 3.4 W 33 46 18 25 1017.9 - 0.0
28/03:00pm 17.3 10.7 11.3 68 3.3 W 37 54 20 29 1017.8 1017.8 0.0
28/02:30pm 17.9 10.5 11.2 65 3.7 W 41 50 22 27 1017.6 - 0.0
28/02:00pm 18.1 11.1 11.2 64 3.8 WNW 39 50 21 27 1017.4 - 0.0
28/01:30pm 17.7 10.2 11.0 65 3.6 WNW 41 54 22 29 1017.3 - 0.0
28/01:00pm 17.5 10.1 11.1 66 3.5 W 41 54 22 29 1017.7 - 0.0
28/12:30pm 16.8 9.2 11.7 72 2.8 W 43 54 23 29 1018.3 - 0.0
28/12:00pm 16.7 9.5 11.8 73 2.7 W 41 54 22 29 1018.7 1018.7 0.0
28/11:34am 16.4 8.6 11.8 74 2.5 W 44 63 24 34 1019.0 - 0.0
28/11:30am 16.2 8.0 11.6 74 2.5 W 46 63 25 34 1018.9 - 0.0
28/11:26am 16.3 8.5 11.9 75 2.4 W 44 63 24 34 1019.0 - 0.0
28/11:00am 15.7 8.3 12.3 80 1.9 W 43 54 23 29 1019.3 - 0.0
28/10:48am 15.2 7.5 11.6 79 2.0 WNW 43 63 23 34 1019.3 - 0.0
28/10:30am 14.9 7.7 11.9 82 1.6 WNW 41 54 22 29 1019.5 - 0.0
28/10:11am 14.6 8.2 11.9 84 1.5 W 37 57 20 31 1019.5 - 0.0
28/10:00am 14.4 7.3 12.1 86 1.3 W 41 52 22 28 1019.5 - 0.0
28/09:30am 13.2 6.2 11.4 89 1.0 WNW 39 48 21 26 1019.5 - 0.0
28/09:00am 12.6 6.0 11.2 91 0.7 WNW 37 48 20 26 1019.4 1019.4 0.0
28/08:30am 11.7 5.7 10.8 94 0.5 WNW 33 43 18 23 1019.1 - 0.0
28/08:00am 10.8 4.8 10.2 96 0.3 NW 32 44 17 24 1018.8 - 0.0
28/07:30am 10.7 5.1 10.1 96 0.3 NW 30 39 16 21 1018.6 - 0.0
28/07:00am 10.4 4.7 9.9 97 0.3 WNW 30 39 16 21 1018.5 - 0.0
28/06:30am 10.2 4.9 10.0 99 0.1 NW 28 41 15 22 1018.4 - 0.0
28/06:00am 10.2 4.5 9.9 98 0.2 NW 30 39 16 21 1018.2 1018.2 0.0
28/05:30am 10.1 4.8 9.8 98 0.2 NW 28 35 15 19 1018.0 - 0.0
28/05:00am 10.3 5.4 10.0 98 0.2 NW 26 33 14 18 1018.1 - 0.0
28/04:30am 10.2 5.3 10.0 99 0.1 NW 26 33 14 18 1018.2 - 0.0
28/04:00am 10.4 5.2 10.2 99 0.1 WNW 28 39 15 21 1018.3 - 0.0
28/03:30am 10.6 5.4 10.4 99 0.1 WNW 28 35 15 19 1018.4 - 0.0
28/03:00am 10.8 5.7 10.6 99 0.1 WNW 28 33 15 18 1018.6 1018.6 0.0
28/02:30am 11.0 6.3 10.8 99 0.1 WNW 26 33 14 18 1018.6 - 0.0
28/02:00am 10.8 6.1 10.6 99 0.1 WNW 26 33 14 18 1018.6 - 0.0
28/01:30am 11.5 6.9 11.0 97 0.3 WNW 26 32 14 17 1018.6 - 0.0
28/01:00am 11.5 7.3 11.2 98 0.2 WNW 24 33 13 18 1018.7 - 0.0
28/12:30am 11.5 7.0 11.3 99 0.1 WNW 26 33 14 18 1018.9 - 0.0
28/12:00am 11.6 7.5 11.3 98 0.2 WNW 24 32 13 17 1018.9 1018.9 0.0
 
Date/Time
WST
Temp
°C
App
Temp
°C
Dew
Point
Rel
Hum
%
Delta-T
°C
Wind Press
QNH
hPa
Press
MSL
hPa
Rain
since 9 am
mm
Dir
 
Spd
km/h
Gust
km/h
Spd
kts
Gust
kts
27/11:30pm 12.0 7.2 11.5 97 0.3 WNW 28 39 15 21 1019.1 - 0.0
27/11:00pm 12.2 7.4 11.6 96 0.3 NW 28 39 15 21 1019.3 - 0.0
27/10:30pm 12.5 6.9 11.4 93 0.6 WNW 32 41 17 22 1019.2 - 0.0
27/10:00pm 12.8 7.2 11.5 92 0.7 NW 32 39 17 21 1019.2 - 0.0
27/09:30pm 12.3 8.2 11.4 94 0.5 NW 24 33 13 18 1019.3 - 0.0
27/09:00pm 12.1 7.9 11.0 93 0.6 NW 24 33 13 18 1019.3 1019.3 0.0
27/08:30pm 12.9 8.3 11.1 89 1.0 NW 26 33 14 18 1019.3 - 0.0
27/08:00pm 12.4 8.9 11.0 91 0.7 NW 20 28 11 15 1019.4 - 0.0
27/07:30pm 12.7 9.2 10.9 89 0.9 NW 20 28 11 15 1019.2 - 0.0

Other Formats:

Comma delimited format used in spreadsheet applications
http://www.bom.gov.au/fwo/IDW60801/IDW60801.95638.axf

JavaScript Object Notation format (JSON) in row-major order
http://www.bom.gov.au/fwo/IDW60801/IDW60801.95638.json